Time;durP1;ratioP1;P1;durP2;ratioP2;P2;SDS_P1;SDS_P2;PMS_P1;PMS_P2;Temp;Humidity;BMP_temperature;BMP_pressure;BME280_temperature;BME280_humidity;BME280_pressure;Samples;Min_cycle;Max_cycle;Signal;HPM_P1;HPM_P2
2021/07/05 00:00:27;;;;;;;6.92;5.35;;;;;;;20.03;79.08;98760.12;1691328;83;21470;-52
2021/07/05 00:02:54;;;;;;;5.33;4.80;;;;;;;20.02;78.98;98763.36;1695349;83;20986;-53
2021/07/05 00:05:21;;;;;;;6.33;5.97;;;;;;;20.02;78.95;98767.95;1695272;83;22738;-53
2021/07/05 00:07:49;;;;;;;5.97;5.25;;;;;;;20.02;78.95;98761.13;1692273;83;21404;-51
2021/07/05 00:10:22;;;;;;;6.58;6.17;;;;;;;20.00;79.01;98757.19;1692637;83;21370;-52
2021/07/05 00:12:50;;;;;;;5.83;5.30;;;;;;;19.99;79.10;98766.89;1692090;83;21157;-51
2021/07/05 00:15:21;;;;;;;8.05;5.85;;;;;;;20.00;79.08;98772.71;1697049;82;21753;-53
2021/07/05 00:17:51;;;;;;;6.87;5.92;;;;;;;20.00;79.17;98768.62;1733540;80;21916;-53
2021/07/05 00:20:19;;;;;;;5.08;4.72;;;;;;;19.98;79.02;98769.30;1732587;80;21050;-53
2021/07/05 00:22:48;;;;;;;6.35;4.03;;;;;;;19.96;79.05;98769.45;1735876;80;21088;-51
2021/07/05 00:25:15;;;;;;;4.78;4.25;;;;;;;19.96;79.16;98770.82;1737112;80;20930;-52
2021/07/05 00:27:42;;;;;;;5.12;4.72;;;;;;;19.96;79.19;98770.82;1736931;80;21106;-53
2021/07/05 00:30:08;;;;;;;4.22;3.92;;;;;;;19.96;79.12;98763.99;1735004;80;21191;-51
2021/07/05 00:32:36;;;;;;;6.45;4.75;;;;;;;19.97;79.11;98759.39;1734213;80;21159;-50
2021/07/05 00:35:05;;;;;;;3.60;3.35;;;;;;;19.97;79.04;98760.76;1739167;80;21109;-52
2021/07/05 00:37:32;;;;;;;5.20;4.80;;;;;;;19.96;78.98;98766.73;1734581;80;21125;-53
2021/07/05 00:39:58;;;;;;;6.05;5.65;;;;;;;19.96;78.99;98761.77;1733933;80;22572;-51
2021/07/05 00:42:25;;;;;;;5.72;5.22;;;;;;;19.95;79.09;98760.91;1733300;80;21077;-51
2021/07/05 00:44:52;;;;;;;4.92;4.42;;;;;;;19.93;79.07;98761.56;1732101;80;21102;-51
2021/07/05 00:47:18;;;;;;;5.15;4.30;;;;;;;19.91;79.13;98755.90;1732143;80;21127;-53
2021/07/05 00:49:45;;;;;;;4.95;4.20;;;;;;;19.87;79.19;98747.18;1737117;80;21046;-53
2021/07/05 00:52:11;;;;;;;4.28;3.17;;;;;;;19.85;79.36;98747.84;1752690;80;21805;-53
2021/07/05 00:54:38;;;;;;;5.35;4.83;;;;;;;19.84;79.41;98745.26;1756330;80;21699;-51
2021/07/05 00:57:04;;;;;;;2.85;2.50;;;;;;;19.82;79.40;98741.31;1756720;80;21092;-51
2021/07/05 00:59:31;;;;;;;3.83;2.95;;;;;;;19.79;79.19;98747.11;1756123;80;21415;-51
2021/07/05 01:01:57;;;;;;;4.30;3.17;;;;;;;19.78;79.26;98745.39;1759084;80;21116;-51
2021/07/05 01:04:24;;;;;;;4.03;3.10;;;;;;;19.77;79.37;98754.59;1756987;80;22528;-53
2021/07/05 01:06:52;;;;;;;2.90;2.60;;;;;;;19.76;79.53;98755.59;1756393;80;21817;-51
2021/07/05 01:09:18;;;;;;;4.37;2.35;;;;;;;19.77;79.57;98745.54;1753811;80;22559;-50
2021/07/05 01:11:45;;;;;;;6.90;3.10;;;;;;;19.79;79.69;98753.08;1753201;80;21129;-51
2021/07/05 01:14:11;;;;;;;2.72;2.52;;;;;;;19.80;79.81;98747.97;1755908;80;21101;-51
2021/07/05 01:16:40;;;;;;;4.75;2.92;;;;;;;19.82;79.82;98748.14;1755929;80;21097;-52
2021/07/05 01:19:07;;;;;;;4.90;3.02;;;;;;;19.83;79.77;98746.27;1756117;80;21108;-51
2021/07/05 01:21:35;;;;;;;4.80;2.47;;;;;;;19.83;79.92;98748.49;1757718;80;22218;-50
2021/07/05 01:24:01;;;;;;;3.87;2.95;;;;;;;19.85;79.92;98747.84;1758605;80;21596;-51
2021/07/05 01:26:27;;;;;;;4.45;2.52;;;;;;;19.86;79.96;98748.70;1757424;80;22251;-51
2021/07/05 01:28:53;;;;;;;3.72;3.42;;;;;;;19.86;79.96;98744.09;1756934;80;21504;-51
2021/07/05 01:31:20;;;;;;;3.90;2.22;;;;;;;19.86;79.86;98742.73;1758473;80;21187;-54
2021/07/05 01:33:46;;;;;;;3.40;3.20;;;;;;;19.85;79.85;98745.11;1756681;80;21061;-52
2021/07/05 01:36:13;;;;;;;3.12;2.62;;;;;;;19.86;79.86;98754.16;1756264;80;21104;-51
2021/07/05 01:38:42;;;;;;;5.60;2.55;;;;;;;19.85;79.85;98753.30;1754121;80;21077;-53
2021/07/05 01:41:08;;;;;;;4.62;2.52;;;;;;;19.85;79.76;98750.56;1759074;80;21179;-54
2021/07/05 01:43:35;;;;;;;2.27;2.17;;;;;;;19.84;79.65;98746.62;1757006;80;21121;-52
2021/07/05 01:46:01;;;;;;;3.75;2.10;;;;;;;19.85;79.62;98751.08;1757826;80;21156;-53
2021/07/05 01:48:27;;;;;;;2.75;2.52;;;;;;;19.85;79.52;98757.90;1757916;80;21089;-51
2021/07/05 01:50:54;;;;;;;3.05;2.10;;;;;;;19.85;79.40;98752.44;1756963;80;21382;-51
2021/07/05 01:53:21;;;;;;;4.47;2.50;;;;;;;19.84;79.34;98757.55;1712938;82;21805;-51
2021/07/05 01:55:47;;;;;;;8.23;2.85;;;;;;;19.84;79.24;98753.45;1746997;80;21536;-53
2021/07/05 01:58:14;;;;;;;2.98;2.12;;;;;;;19.82;79.17;98760.42;1749737;80;20944;-50
2021/07/05 02:00:45;;;;;;;2.20;2.10;;;;;;;19.81;79.16;98768.30;1753052;80;21006;-53
2021/07/05 02:03:11;;;;;;;2.87;2.55;;;;;;;19.79;79.21;98765.36;1749602;80;20946;-51
2021/07/05 02:05:37;;;;;;;2.35;2.25;;;;;;;19.80;79.26;98771.17;1751828;80;21097;-51
2021/07/05 02:08:04;;;;;;;2.15;2.05;;;;;;;19.79;79.26;98771.68;1749656;80;21112;-51
2021/07/05 02:10:33;;;;;;;3.52;2.25;;;;;;;19.80;79.26;98773.91;1749937;80;21046;-51
2021/07/05 02:13:05;;;;;;;4.40;1.87;;;;;;;19.80;79.26;98776.64;1750683;80;21449;-52
2021/07/05 02:15:32;;;;;;;2.75;2.00;;;;;;;19.80;79.20;98778.00;1751930;80;21034;-53
2021/07/05 02:17:58;;;;;;;3.87;2.40;;;;;;;19.80;79.15;98782.96;1748029;80;21163;-50
2021/07/05 02:20:26;;;;;;;2.75;1.82;;;;;;;19.79;79.11;98784.47;1753165;80;21078;-50
2021/07/05 02:22:53;;;;;;;2.30;1.67;;;;;;;19.79;79.13;98782.61;1751854;80;21070;-51
2021/07/05 02:25:28;;;;;;;4.45;1.82;;;;;;;19.79;79.02;98782.61;1697743;82;20946;-53
2021/07/05 02:27:55;;;;;;;3.55;1.95;;;;;;;19.80;79.03;98783.47;1695634;83;21093;-52
2021/07/05 02:30:22;;;;;;;4.05;2.15;;;;;;;19.79;79.07;98785.34;1753431;80;21120;-53
2021/07/05 02:32:49;;;;;;;2.47;1.10;;;;;;;19.79;79.13;98781.23;1754118;80;20938;-51
2021/07/05 02:35:18;;;;;;;2.25;1.50;;;;;;;19.80;79.14;98776.64;1751641;80;21113;-50
2021/07/05 02:37:45;;;;;;;6.05;1.92;;;;;;;19.80;79.18;98769.81;1752272;80;21706;-51
2021/07/05 02:40:13;;;;;;;6.58;2.42;;;;;;;19.81;79.30;98776.99;1747972;80;21349;-53
2021/07/05 02:42:40;;;;;;;4.35;1.75;;;;;;;19.81;79.33;98771.53;1747122;80;21113;-52
2021/07/05 02:45:08;;;;;;;8.68;1.60;;;;;;;19.84;79.44;98782.13;1752196;80;20974;-52
2021/07/05 02:47:35;;;;;;;4.28;1.70;;;;;;;19.85;79.51;98772.92;1752622;80;20871;-52
2021/07/05 02:50:05;;;;;;;1.62;1.50;;;;;;;19.87;79.59;98773.63;1750077;80;21092;-51
2021/07/05 02:52:32;;;;;;;2.30;2.10;;;;;;;19.89;79.69;98773.83;1749001;80;21085;-49
2021/07/05 02:54:58;;;;;;;1.72;1.62;;;;;;;19.92;79.77;98782.20;1750767;80;21113;-50
2021/07/05 02:57:31;;;;;;;2.45;1.80;;;;;;;19.95;79.89;98781.89;1748689;80;21152;-53
2021/07/05 03:00:16;;;;;;;3.27;2.98;;;;;;;19.97;79.98;98778.51;1746149;80;21911;-51
2021/07/05 03:02:44;;;;;;;4.17;1.32;;;;;;;19.97;80.09;98783.47;1747676;80;21045;-51
2021/07/05 03:05:12;;;;;;;4.83;1.87;;;;;;;20.02;80.38;98781.61;1748376;80;21049;-52
2021/07/05 03:07:38;;;;;;;1.72;1.37;;;;;;;20.05;80.49;98782.68;1750058;80;21516;-54
2021/07/05 03:10:06;;;;;;;2.72;1.72;;;;;;;20.10;80.67;98781.69;1751916;80;21440;-54
2021/07/05 03:12:32;;;;;;;2.30;1.62;;;;;;;20.15;80.86;98779.36;1754424;80;20967;-50
2021/07/05 03:14:59;;;;;;;2.85;1.72;;;;;;;20.21;80.91;98787.42;1752508;80;22008;-52
2021/07/05 03:17:25;;;;;;;5.95;2.75;;;;;;;20.27;81.06;98792.25;1717951;81;21085;-50
2021/07/05 03:19:51;;;;;;;1.90;1.80;;;;;;;20.33;81.27;98793.00;1750021;80;21104;-50
2021/07/05 03:22:18;;;;;;;2.70;2.50;;;;;;;20.40;81.40;98795.47;1750369;80;21073;-52
2021/07/05 03:24:44;;;;;;;4.33;3.00;;;;;;;20.47;81.57;98791.59;1752090;80;22146;-54
2021/07/05 03:27:11;;;;;;;5.03;2.55;;;;;;;20.53;81.72;98786.84;1749265;80;21706;-52
2021/07/05 03:29:38;;;;;;;5.53;3.67;;;;;;;20.61;81.80;98789.63;1753875;80;21382;-53
2021/07/05 03:32:06;;;;;;;3.42;3.20;;;;;;;20.69;81.83;98791.91;1752511;80;21955;-50
2021/07/05 03:34:32;;;;;;;4.45;2.90;;;;;;;20.76;81.73;98791.61;1753356;80;21409;-51
2021/07/05 03:36:58;;;;;;;6.03;2.72;;;;;;;20.84;81.62;98780.39;1753131;80;21366;-51
2021/07/05 03:39:25;;;;;;;2.67;2.35;;;;;;;20.91;81.53;98780.95;1754074;80;21381;-52
2021/07/05 03:41:51;;;;;;;3.47;2.33;;;;;;;20.98;81.33;98780.64;1717139;82;20998;-51
2021/07/05 03:44:17;;;;;;;2.60;2.35;;;;;;;21.04;81.17;98777.75;1755988;80;21091;-54
2021/07/05 03:46:45;;;;;;;2.25;2.15;;;;;;;21.06;80.98;98778.45;1718504;82;20920;-52
2021/07/05 03:49:12;;;;;;;4.05;2.33;;;;;;;21.09;80.93;98778.98;1754787;80;20864;-52
2021/07/05 03:51:38;;;;;;;2.60;2.40;;;;;;;21.14;81.04;98778.48;1752789;80;20958;-52
2021/07/05 03:54:04;;;;;;;4.35;2.12;;;;;;;21.18;81.04;98771.67;1762230;80;20922;-54
2021/07/05 03:56:31;;;;;;;3.20;2.00;;;;;;;21.24;81.00;98775.66;1760859;80;21433;-52
2021/07/05 03:58:57;;;;;;;2.83;2.05;;;;;;;21.29;80.77;98772.76;1760344;80;20859;-51
2021/07/05 04:01:23;;;;;;;2.87;2.77;;;;;;;21.34;80.69;98771.77;1759277;80;21109;-54
2021/07/05 04:03:50;;;;;;;3.62;1.85;;;;;;;21.38;80.62;98773.64;1755052;80;21069;-53
2021/07/05 04:06:16;;;;;;;3.92;2.25;;;;;;;21.44;80.54;98771.60;1754129;80;21713;-52
2021/07/05 04:08:44;;;;;;;2.47;2.17;;;;;;;21.51;80.60;98772.67;1757000;80;22040;-53
2021/07/05 04:11:10;;;;;;;5.37;2.67;;;;;;;21.58;80.60;98772.34;1756888;80;22433;-51
2021/07/05 04:13:36;;;;;;;7.92;1.98;;;;;;;21.64;80.46;98762.59;1757432;80;21110;-51
2021/07/05 04:16:04;;;;;;;5.78;2.55;;;;;;;21.71;80.01;98771.34;1757144;80;21054;-51
2021/07/05 04:18:32;;;;;;;2.10;1.90;;;;;;;21.77;79.63;98768.46;1756703;80;21151;-54
2021/07/05 04:20:58;;;;;;;3.55;2.92;;;;;;;21.81;79.55;98768.45;1755225;80;22183;-54
2021/07/05 04:23:25;;;;;;;9.70;2.90;;;;;;;21.87;79.34;98772.73;1758516;80;21748;-53
2021/07/05 04:25:52;;;;;;;2.65;2.12;;;;;;;21.97;79.41;98777.20;1755120;80;21125;-53
2021/07/05 04:28:19;;;;;;;4.40;2.52;;;;;;;22.04;79.18;98772.78;1758116;80;21582;-54
2021/07/05 04:30:45;;;;;;;2.08;1.98;;;;;;;22.12;78.41;98779.63;1755745;80;21045;-51
2021/07/05 04:35:42;;;;;;;2.47;2.33;;;;;;;22.29;77.89;98770.39;1870102;74;22318;-51
2021/07/05 04:38:09;;;;;;;9.10;2.72;;;;;;;22.32;77.67;98770.56;1833739;76;21275;-50
2021/07/05 04:40:39;;;;;;;3.95;3.67;;;;;;;22.38;77.36;98768.50;1836205;76;21459;-51
2021/07/05 04:43:06;;;;;;;2.85;2.52;;;;;;;22.42;77.07;98773.48;1794415;76;21040;-53
2021/07/05 04:45:32;;;;;;;3.15;2.35;;;;;;;22.48;76.88;98767.81;1786249;76;21298;-52
2021/07/05 04:48:02;;;;;;;2.30;2.10;;;;;;;22.54;76.88;98774.83;1790779;76;21264;-53
2021/07/05 04:50:29;;;;;;;2.90;2.33;;;;;;;22.58;76.70;98781.69;1784430;76;20965;-51
2021/07/05 04:52:55;;;;;;;4.45;2.42;;;;;;;22.61;76.13;98775.87;1787218;76;21151;-50
2021/07/05 04:55:22;;;;;;;6.62;2.33;;;;;;;22.61;75.89;98778.61;1785742;76;21750;-53
2021/07/05 04:57:50;;;;;;;2.77;2.55;;;;;;;22.60;76.01;98781.01;1788591;76;21448;-52
2021/07/05 05:00:24;;;;;;;2.45;2.25;;;;;;;22.63;75.98;98777.04;1787668;76;22465;-51
2021/07/05 05:02:51;;;;;;;3.02;2.72;;;;;;;22.71;75.75;98773.45;1783230;76;21014;-54
2021/07/05 05:05:17;;;;;;;3.12;2.20;;;;;;;22.75;75.64;98768.83;1788996;76;21108;-52
2021/07/05 05:07:43;;;;;;;3.42;2.47;;;;;;;22.83;75.35;98767.44;1787244;76;21467;-52
2021/07/05 05:10:13;;;;;;;6.45;2.87;;;;;;;22.92;74.89;98760.05;1788117;76;21155;-50
2021/07/05 05:12:40;;;;;;;4.30;3.27;;;;;;;22.98;75.01;98767.05;1784417;76;21073;-53
2021/07/05 05:15:08;;;;;;;3.72;2.22;;;;;;;23.03;74.47;98766.53;1782328;76;21037;-52
2021/07/05 05:17:34;;;;;;;3.50;3.20;;;;;;;23.07;74.49;98769.25;1789975;76;20918;-52
2021/07/05 05:20:04;;;;;;;2.95;2.42;;;;;;;23.13;74.29;98765.82;1784274;76;21673;-50
2021/07/05 05:22:31;;;;;;;3.80;2.00;;;;;;;23.15;73.76;98766.98;1785855;76;21084;-51
2021/07/05 05:24:57;;;;;;;3.17;2.65;;;;;;;23.21;73.84;98768.53;1786627;76;21072;-52
2021/07/05 05:27:23;;;;;;;4.12;2.77;;;;;;;23.29;73.76;98763.52;1786623;76;21398;-52
2021/07/05 05:29:50;;;;;;;2.45;2.27;;;;;;;23.36;73.40;98763.14;1784613;76;21887;-50
2021/07/05 05:32:17;;;;;;;3.90;2.37;;;;;;;23.43;73.03;98768.77;1784024;76;21098;-51
2021/07/05 05:34:43;;;;;;;3.72;2.37;;;;;;;23.46;72.86;98763.78;1796613;76;21048;-51
2021/07/05 05:37:10;;;;;;;3.47;2.90;;;;;;;23.52;73.02;98767.72;1802447;76;21072;-50
2021/07/05 05:39:36;;;;;;;2.75;2.55;;;;;;;23.58;72.95;98769.22;1800437;76;21142;-52
2021/07/05 05:42:03;;;;;;;3.95;2.02;;;;;;;23.63;72.40;98764.06;1803954;76;21181;-53
2021/07/05 05:44:31;;;;;;;2.33;2.20;;;;;;;23.66;71.96;98772.44;1804433;76;21014;-52
2021/07/05 05:46:58;;;;;;;3.40;2.50;;;;;;;23.71;71.76;98774.14;1790338;76;21075;-51
2021/07/05 05:49:25;;;;;;;2.27;1.90;;;;;;;23.74;71.71;98775.99;1805655;76;20945;-52
2021/07/05 05:51:51;;;;;;;6.12;2.75;;;;;;;23.79;71.60;98772.72;1806233;76;21499;-52
2021/07/05 05:54:18;;;;;;;2.77;2.58;;;;;;;23.85;71.90;98768.38;1802021;76;21139;-54
2021/07/05 05:56:44;;;;;;;4.53;3.30;;;;;;;23.89;71.49;98769.22;1801781;76;21603;-53
2021/07/05 05:59:11;;;;;;;3.45;2.72;;;;;;;23.91;71.25;98763.52;1802925;76;21470;-55
2021/07/05 06:01:41;;;;;;;2.62;2.52;;;;;;;23.92;70.72;98758.36;1800984;76;21036;-54
2021/07/05 06:04:08;;;;;;;3.12;1.95;;;;;;;23.92;70.89;98755.61;1802679;76;21365;-54
2021/07/05 06:06:37;;;;;;;3.02;2.72;;;;;;;23.95;70.86;98749.77;1806309;76;21419;-53
2021/07/05 06:09:03;;;;;;;2.98;2.00;;;;;;;23.98;70.67;98754.91;1782952;77;21052;-53
2021/07/05 06:11:29;;;;;;;4.67;2.55;;;;;;;24.03;70.44;98756.58;1806984;76;20898;-54
2021/07/05 06:13:55;;;;;;;5.05;2.67;;;;;;;24.07;69.99;98755.19;1805048;76;21314;-53
2021/07/05 06:16:22;;;;;;;2.83;2.62;;;;;;;24.11;70.04;98750.49;1801197;76;21088;-55
2021/07/05 06:18:49;;;;;;;3.87;2.50;;;;;;;24.19;69.96;98750.94;1801510;76;21342;-54
2021/07/05 06:21:17;;;;;;;3.98;3.67;;;;;;;24.27;69.96;98757.78;1802070;76;21175;-54
2021/07/05 06:23:44;;;;;;;2.37;2.17;;;;;;;24.35;69.88;98755.47;1799203;76;21361;-53
2021/07/05 06:26:10;;;;;;;2.92;2.70;;;;;;;24.42;69.36;98760.56;1800685;76;21577;-55
2021/07/05 06:28:36;;;;;;;4.70;2.15;;;;;;;24.48;68.78;98753.82;1803098;76;21033;-53
2021/07/05 06:31:03;;;;;;;2.65;1.87;;;;;;;24.55;68.79;98755.30;1805169;76;21087;-53
2021/07/05 06:33:30;;;;;;;5.30;2.90;;;;;;;24.64;68.76;98756.08;1810505;76;20874;-54
2021/07/05 06:35:56;;;;;;;6.55;3.55;;;;;;;24.73;68.24;98755.80;1805308;76;20890;-53
2021/07/05 06:38:23;;;;;;;4.20;3.90;;;;;;;24.79;68.62;98748.69;1746714;80;20921;-55
2021/07/05 06:40:49;;;;;;;4.70;3.70;;;;;;;24.83;68.75;98753.64;1766007;78;21676;-54
2021/07/05 06:43:16;;;;;;;3.92;3.70;;;;;;;24.88;68.61;98748.41;1767147;78;21698;-55
2021/07/05 06:45:43;;;;;;;4.58;2.95;;;;;;;24.93;68.63;98745.11;1764149;78;21862;-53
2021/07/05 06:48:10;;;;;;;4.80;4.12;;;;;;;24.97;68.45;98740.95;1745749;79;20972;-56
2021/07/05 06:50:37;;;;;;;3.87;3.55;;;;;;;25.01;67.60;98736.75;1721019;79;21106;-53
2021/07/05 06:53:05;;;;;;;3.77;3.58;;;;;;;25.02;67.56;98741.22;1743918;79;20968;-57
2021/07/05 06:55:32;;;;;;;7.22;4.53;;;;;;;25.02;67.91;98735.71;1745584;79;21417;-57
2021/07/05 06:57:58;;;;;;;4.85;4.47;;;;;;;25.01;68.07;98733.17;1743992;79;20913;-55
2021/07/05 07:00:27;;;;;;;8.85;3.20;;;;;;;25.01;67.95;98732.62;1747224;79;20979;-54
2021/07/05 07:02:55;;;;;;;3.87;2.47;;;;;;;25.03;67.87;98732.44;1746962;81;21067;-53
2021/07/05 07:07:41;;;;;;;5.25;3.25;;;;;;;25.12;67.49;98734.91;1792517;78;22598;-52
2021/07/05 07:10:09;;;;;;;5.75;4.53;;;;;;;25.12;67.19;98729.92;1737046;81;21252;-50
2021/07/05 07:12:36;;;;;;;5.05;4.75;;;;;;;25.15;67.26;98735.06;1731144;81;21119;-53
2021/07/05 07:15:08;;;;;;;4.60;3.05;;;;;;;25.15;66.91;98740.56;1730172;81;21012;-50
2021/07/05 07:17:39;;;;;;;5.90;4.40;;;;;;;25.16;66.92;98746.41;1706397;81;20966;-53
2021/07/05 07:20:08;;;;;;;5.08;3.60;;;;;;;25.17;67.08;98752.25;1720394;81;21025;-52
2021/07/05 07:22:35;;;;;;;5.00;3.60;;;;;;;25.19;67.10;98748.76;1716936;82;21503;-51
2021/07/05 07:25:03;;;;;;;4.45;4.03;;;;;;;25.25;67.72;98748.88;1694513;82;21321;-52
2021/07/05 07:27:30;;;;;;;6.62;4.70;;;;;;;25.30;67.18;98752.41;1733102;81;21530;-53
2021/07/05 07:29:56;;;;;;;6.75;5.40;;;;;;;25.35;66.67;98754.61;1727174;81;21534;-53
2021/07/05 07:32:22;;;;;;;3.27;3.08;;;;;;;25.37;66.63;98758.86;1728307;81;21124;-52
2021/07/05 07:34:49;;;;;;;5.85;5.35;;;;;;;25.39;66.71;98756.77;1697857;82;21140;-51
2021/07/05 07:37:16;;;;;;;3.65;2.70;;;;;;;25.41;66.10;98760.72;1682285;83;22003;-52
2021/07/05 07:39:47;;;;;;;4.25;3.72;;;;;;;25.44;66.84;98761.17;1705212;83;21447;-52
2021/07/05 07:42:14;;;;;;;6.05;3.42;;;;;;;25.51;66.00;98758.00;1694259;83;21184;-53
2021/07/05 07:44:40;;;;;;;8.85;4.08;;;;;;;25.57;66.24;98753.09;1710082;81;21101;-51
2021/07/05 07:47:06;;;;;;;4.92;3.77;;;;;;;25.63;66.26;98754.23;1713101;81;21045;-52
2021/07/05 07:49:33;;;;;;;7.87;4.20;;;;;;;25.69;66.18;98752.07;1710282;81;21175;-52
2021/07/05 07:52:01;;;;;;;2.08;1.87;;;;;;;25.73;65.42;98748.41;1708274;81;21073;-52
2021/07/05 07:54:28;;;;;;;3.00;2.55;;;;;;;25.75;64.70;98757.35;1710939;81;21167;-52
2021/07/05 07:56:55;;;;;;;3.47;2.05;;;;;;;25.80;65.08;98760.36;1711261;82;21284;-51
2021/07/05 07:59:23;;;;;;;3.10;1.80;;;;;;;25.87;64.68;98758.53;1696719;82;21580;-51
2021/07/05 08:01:49;;;;;;;3.67;2.15;;;;;;;25.93;64.77;98759.15;1706301;82;21225;-54
2021/07/05 08:04:15;;;;;;;2.80;2.55;;;;;;;25.99;64.21;98771.63;1675787;83;21419;-53
2021/07/05 08:06:42;;;;;;;2.60;1.62;;;;;;;26.05;63.57;98770.50;1678276;82;21563;-52
2021/07/05 08:09:09;;;;;;;3.90;2.17;;;;;;;26.07;63.21;98769.78;1666227;84;21882;-53
2021/07/05 08:11:37;;;;;;;3.83;1.77;;;;;;;26.08;63.20;98777.01;1670794;84;21480;-58
2021/07/05 08:14:05;;;;;;;1.65;1.55;;;;;;;26.10;63.28;98776.30;1667126;84;21543;-53
2021/07/05 08:16:31;;;;;;;2.33;1.45;;;;;;;26.11;63.31;98773.34;1675097;84;21186;-53
2021/07/05 08:18:58;;;;;;;5.67;2.00;;;;;;;26.13;62.96;98780.87;1669921;84;22316;-55
2021/07/05 08:21:25;;;;;;;1.90;1.80;;;;;;;26.19;62.68;98780.11;1666768;84;21734;-54
2021/07/05 08:23:53;;;;;;;1.65;1.42;;;;;;;26.21;61.92;98768.33;1667454;84;21137;-55
2021/07/05 08:26:19;;;;;;;2.45;1.35;;;;;;;26.25;61.74;98774.32;1677522;83;21121;-56
2021/07/05 08:28:46;;;;;;;3.20;1.50;;;;;;;26.28;61.22;98775.34;1716508;81;21037;-54
2021/07/05 08:31:13;;;;;;;1.82;1.72;;;;;;;26.34;62.19;98780.06;1712897;82;21065;-53
2021/07/05 08:33:39;;;;;;;2.00;1.77;;;;;;;26.44;61.50;98772.31;1717325;81;21292;-54
2021/07/05 08:36:07;;;;;;;2.60;2.40;;;;;;;26.49;60.74;98769.80;1715226;82;20965;-53
2021/07/05 08:38:34;;;;;;;2.92;1.50;;;;;;;26.52;60.89;98774.08;1714007;81;21123;-54
2021/07/05 08:41:00;;;;;;;3.45;2.12;;;;;;;26.54;60.22;98768.66;1715362;82;21165;-54
2021/07/05 08:43:28;;;;;;;1.50;1.40;;;;;;;26.56;60.48;98769.84;1716568;80;21371;-54
2021/07/05 08:46:01;;;;;;;2.47;1.85;;;;;;;26.56;59.19;98761.04;1714322;81;21059;-53
2021/07/05 08:48:30;;;;;;;1.90;1.47;;;;;;;26.60;59.06;98761.51;1709312;82;21773;-54
2021/07/05 08:50:59;;;;;;;2.37;1.72;;;;;;;26.60;59.16;98765.13;1718689;82;22179;-55
2021/07/05 08:53:25;;;;;;;2.02;1.40;;;;;;;26.61;59.64;98771.50;1714664;82;20975;-53
2021/07/05 08:55:52;;;;;;;4.30;1.67;;;;;;;26.58;60.20;98765.84;1717357;82;21068;-54
2021/07/05 08:58:18;;;;;;;2.22;1.00;;;;;;;26.59;60.25;98770.84;1719670;82;21587;-57
2021/07/05 09:00:45;;;;;;;3.85;1.20;;;;;;;26.57;60.08;98771.55;1714798;82;21133;-52
2021/07/05 09:03:11;;;;;;;1.50;1.40;;;;;;;26.54;59.98;98771.42;1713514;82;21160;-53
2021/07/05 09:05:38;;;;;;;1.98;1.07;;;;;;;26.53;59.95;98771.12;1715206;82;21049;-54
2021/07/05 09:10:10;;;;;;;2.55;1.35;;;;;;;26.62;59.79;98768.55;1792111;78;23466;-53
2021/07/05 09:12:38;;;;;;;1.37;1.10;;;;;;;26.69;59.11;98763.07;1765498;79;20991;-50
2021/07/05 09:15:14;;;;;;;6.20;1.15;;;;;;;26.84;58.65;98760.20;1765401;79;21162;-54
2021/07/05 09:17:42;;;;;;;4.15;1.27;;;;;;;26.96;57.95;98759.48;1768483;79;21506;-53
2021/07/05 09:20:19;;;;;;;1.55;1.25;;;;;;;27.02;55.92;98758.66;1765262;79;20958;-52
2021/07/05 09:23:12;;;;;;;1.55;0.90;;;;;;;27.04;56.71;98757.09;1765578;79;20981;-51
2021/07/05 09:25:42;;;;;;;1.10;1.00;;;;;;;27.04;57.08;98766.23;1766693;79;21472;-53
2021/07/05 09:28:09;;;;;;;1.70;1.20;;;;;;;27.01;57.37;98763.86;1765448;79;21772;-53
2021/07/05 09:30:38;;;;;;;3.47;1.45;;;;;;;27.04;57.03;98761.23;1761982;79;21299;-55
2021/07/05 09:33:26;;;;;;;1.65;1.20;;;;;;;27.07;57.48;98769.94;1763908;79;21068;-54
2021/07/05 09:35:57;;;;;;;1.20;1.10;;;;;;;27.13;57.18;98771.06;1763117;79;22146;-57
2021/07/05 09:38:37;;;;;;;4.20;1.12;;;;;;;27.14;57.40;98769.98;1763984;79;21607;-60
2021/07/05 09:41:27;;;;;;;2.60;1.10;;;;;;;27.07;55.45;98767.70;1768053;79;21873;-53
2021/07/05 09:43:59;;;;;;;1.47;1.05;;;;;;;27.03;55.51;98781.09;1735158;81;20878;-55
2021/07/05 09:46:48;;;;;;;2.75;1.10;;;;;;;27.01;55.62;98779.05;1740429;81;20923;-54
2021/07/05 09:49:19;;;;;;;1.35;1.00;;;;;;;27.08;55.85;98777.70;1737558;81;21041;-55
2021/07/05 09:52:06;;;;;;;1.20;1.10;;;;;;;27.15;55.62;98781.87;1729238;81;21381;-53
2021/07/05 09:54:33;;;;;;;1.25;1.15;;;;;;;27.25;55.01;98787.38;1727887;81;21137;-59
2021/07/05 09:57:01;;;;;;;1.30;0.98;;;;;;;27.31;54.92;98775.50;1733168;81;21556;-53
2021/07/05 09:59:29;;;;;;;1.32;0.90;;;;;;;27.33;53.38;98776.16;1733722;81;21088;-55
2021/07/05 10:01:57;;;;;;;1.37;1.00;;;;;;;27.27;52.35;98774.22;1733630;81;21124;-53
2021/07/05 10:04:31;;;;;;;2.33;0.90;;;;;;;27.26;52.69;98770.27;1674157;84;21140;-56
2021/07/05 10:07:00;;;;;;;1.77;0.80;;;;;;;27.28;53.19;98773.16;1699463;82;21164;-59
2021/07/05 10:09:48;;;;;;;2.33;0.90;;;;;;;27.34;53.86;98774.24;1697581;82;21030;-53
2021/07/05 10:12:28;;;;;;;0.90;0.82;;;;;;;27.45;52.60;98773.15;1694194;82;21033;-53
2021/07/05 10:15:11;;;;;;;2.52;0.80;;;;;;;27.54;51.78;98768.33;1725798;81;21049;-55
2021/07/05 10:17:42;;;;;;;1.67;0.80;;;;;;;27.63;51.83;98763.48;1724379;81;21071;-54
2021/07/05 10:20:13;;;;;;;1.05;0.90;;;;;;;27.71;51.01;98768.30;1725707;81;20892;-51
2021/07/05 10:22:44;;;;;;;1.42;1.10;;;;;;;27.67;52.07;98757.31;1729675;81;21065;-52
2021/07/05 10:25:11;;;;;;;0.93;0.82;;;;;;;27.60;52.66;98765.26;1725960;81;21001;-53
2021/07/05 10:27:38;;;;;;;1.65;0.80;;;;;;;27.52;52.88;98768.17;1725007;81;21039;-53
2021/07/05 10:30:09;;;;;;;1.30;1.00;;;;;;;27.46;51.88;98756.04;1722192;81;21703;-52
2021/07/05 10:32:36;;;;;;;3.10;0.80;;;;;;;27.44;52.11;98770.05;1728067;81;21101;-54
2021/07/05 10:35:03;;;;;;;0.95;0.72;;;;;;;27.49;52.23;98760.61;1730194;81;20926;-53
2021/07/05 10:37:47;;;;;;;0.93;0.75;;;;;;;27.52;51.16;98753.83;1730141;81;20995;-56
2021/07/05 10:40:13;;;;;;;1.70;1.20;;;;;;;27.53;50.93;98761.59;1725546;81;21544;-51
2021/07/05 10:42:43;;;;;;;4.53;1.00;;;;;;;27.52;51.43;98750.20;1726354;81;21035;-53
2021/07/05 10:45:17;;;;;;;4.20;0.70;;;;;;;27.53;51.57;98762.97;1727168;81;21808;-53
2021/07/05 10:47:53;;;;;;;2.42;0.70;;;;;;;27.55;51.94;98756.22;1727053;81;21134;-52
2021/07/05 10:50:43;;;;;;;0.70;0.70;;;;;;;27.56;51.80;98750.16;1728586;81;21081;-52
2021/07/05 10:53:13;;;;;;;3.58;0.80;;;;;;;27.62;51.45;98755.71;1728069;81;21086;-52
2021/07/05 10:55:46;;;;;;;3.67;0.88;;;;;;;27.70;51.61;98754.67;1727096;81;20922;-52
2021/07/05 10:58:21;;;;;;;1.13;0.80;;;;;;;27.79;51.54;98758.96;1726660;81;21142;-52
2021/07/05 11:00:51;;;;;;;0.80;0.80;;;;;;;27.89;50.64;98754.42;1721296;81;21076;-53
2021/07/05 11:03:41;;;;;;;4.30;0.80;;;;;;;27.89;51.25;98746.13;1721935;81;21065;-53
2021/07/05 11:06:31;;;;;;;2.27;1.20;;;;;;;27.90;51.27;98747.30;1725932;81;21165;-52
2021/07/05 11:08:58;;;;;;;1.35;1.02;;;;;;;27.80;50.47;98751.84;1726284;81;21086;-52
2021/07/05 11:11:32;;;;;;;1.47;1.37;;;;;;;27.72;51.19;98747.89;1676785;82;21789;-54
2021/07/05 11:14:15;;;;;;;2.30;0.90;;;;;;;27.74;51.81;98744.89;1717549;81;21058;-54
2021/07/05 11:17:09;;;;;;;1.15;0.78;;;;;;;27.80;51.49;98734.40;1720819;81;21423;-54
2021/07/05 11:19:50;;;;;;;1.90;0.70;;;;;;;27.88;51.63;98743.89;1716140;82;21094;-52
2021/07/05 11:22:35;;;;;;;2.05;0.90;;;;;;;27.94;51.97;98740.80;1719144;81;21706;-54
2021/07/05 11:25:24;;;;;;;1.90;0.80;;;;;;;28.02;51.81;98744.23;1714172;81;21175;-53
2021/07/05 11:28:03;;;;;;;2.55;0.90;;;;;;;28.03;51.32;98739.02;1720064;81;21133;-54
2021/07/05 11:30:41;;;;;;;5.20;0.90;;;;;;;27.98;51.02;98740.19;1715636;81;21065;-55
2021/07/05 11:33:16;;;;;;;2.52;1.17;;;;;;;27.91;51.18;98748.98;1704673;82;21125;-53
2021/07/05 11:35:48;;;;;;;3.17;0.82;;;;;;;27.82;51.76;98747.46;1718470;81;21499;-53
2021/07/05 11:38:41;;;;;;;1.85;0.98;;;;;;;27.79;52.19;98744.61;1715094;81;23115;-54
2021/07/05 11:41:24;;;;;;;2.75;0.72;;;;;;;27.80;51.90;98738.55;1714495;82;21054;-53
2021/07/05 11:44:02;;;;;;;2.83;0.70;;;;;;;27.82;51.50;98737.25;1716632;81;21427;-52
2021/07/05 11:46:35;;;;;;;0.88;0.80;;;;;;;27.76;51.56;98731.19;1721566;81;21006;-55
2021/07/05 11:49:07;;;;;;;5.05;0.90;;;;;;;27.76;51.68;98734.48;1718660;82;21126;-54